This is the latest recevied weather packets stored in our database for station/object IZ1UKX-13. If no packets are shown the sender has not sent any weather packets the latest 10 day(s).
| Time | Temp. | Humidity | Pressure | Rain* | Wind** | Luminosity | Snow |
|---|---|---|---|---|---|---|---|
| 1787762950 | 25° C | 79% | 1021.8 hPa | 0 mm | - | 0 W/m² | - |
| 1787762650 | 25° C | 79% | 1021.8 hPa | 0 mm | - | 0 W/m² | - |
| 1787762350 | 25° C | 78% | 1021.8 hPa | 0 mm | - | 0 W/m² | - |
| 1787762050 | 25.56° C | 77% | 1021.8 hPa | 0 mm | - | 0 W/m² | - |
| 1787761750 | 25.56° C | 76% | 1021.8 hPa | 0 mm | - | 0 W/m² | - |
| 1787761450 | 26.11° C | 75% | 1021.4 hPa | 0 mm | - | 0 W/m² | - |
| 1787761150 | 26.11° C | 74% | 1021.4 hPa | 0 mm | - | 0 W/m² | - |
| 1787760850 | 26.67° C | 73% | 1021.4 hPa | 0 mm | - | 0 W/m² | - |
| 1787760549 | 27.22° C | 71% | 1021.4 hPa | 0 mm | - | 0 W/m² | - |
| 1787760250 | 27.78° C | 70% | 1021.4 hPa | 0 mm | - | 0 W/m² | - |
| 1787759950 | 27.78° C | 69% | 1021.4 hPa | 0 mm | - | 0 W/m² | - |
| 1787759650 | 28.33° C | 68% | 1021.4 hPa | 0 mm | - | 0 W/m² | - |
| 1787759349 | 28.33° C | 68% | 1021 hPa | 0 mm | - | 0 W/m² | - |
| 1787759050 | 28.33° C | 69% | 1021.4 hPa | 0 mm | - | 0 W/m² | - |
| 1787758750 | 27.78° C | 72% | 1021.4 hPa | 0 mm | - | 0 W/m² | - |
| 1787758450 | 26.67° C | 74% | 1021.4 hPa | 0 mm | - | 0 W/m² | - |
| 1787758150 | 26.11° C | 76% | 1021.8 hPa | 0 mm | - | 0 W/m² | - |
| 1787757850 | 25.56° C | 76% | 1021.8 hPa | 0 mm | - | 0 W/m² | - |
| 1787757550 | 26.11° C | 76% | 1021.8 hPa | 0 mm | - | 0 W/m² | - |
| 1787757250 | 26.11° C | 75% | 1021.8 hPa | 0 mm | - | 0 W/m² | - |
| 1787756950 | 26.11° C | 74% | 1021.4 hPa | 0 mm | - | 0 W/m² | - |
| 1787756655 | 26.67° C | 72% | 1021.4 hPa | 0 mm | - | 0 W/m² | - |
| 1787756350 | 26.67° C | 70% | 1021.4 hPa | 0 mm | - | 0 W/m² | - |
| 1787756049 | 26.67° C | 69% | 1021.4 hPa | 0 mm | - | 0 W/m² | - |
| 1787755750 | 27.22° C | 67% | 1021.4 hPa | 0 mm | - | 0 W/m² | - |
* Rain latest hour (hover to see other rain measurements)
** Current wind speed in m/s (hover to see current wind gust speed)